createdAt,value
2022-11-05T00:01:09.369Z,96.56
2022-11-05T00:03:55.290Z,96.36
2022-11-05T00:06:41.334Z,96.52
2022-11-05T00:09:29.351Z,96.53
2022-11-05T00:12:16.419Z,96.88
2022-11-05T00:15:03.703Z,96.99
2022-11-05T00:17:32.142Z,96.70
2022-11-05T00:20:00.891Z,96.75
2022-11-05T00:22:47.012Z,96.90
2022-11-05T00:25:16.755Z,97.24
2022-11-05T00:27:50.607Z,96.81
2022-11-05T00:30:24.123Z,96.86
2022-11-05T00:32:53.901Z,96.95
2022-11-05T00:35:23.584Z,96.81
2022-11-05T00:37:54.562Z,96.69
2022-11-05T00:40:22.838Z,97.00
2022-11-05T00:43:08.869Z,96.81
2022-11-05T00:45:38.920Z,96.75
2022-11-05T00:48:25.164Z,95.57
2022-11-05T00:50:53.680Z,95.55
2022-11-05T00:53:22.120Z,95.21
2022-11-05T00:55:50.592Z,94.15
2022-11-05T00:58:22.562Z,94.87
2022-11-05T01:00:55.034Z,95.29
2022-11-05T01:03:25.775Z,95.67
2022-11-05T01:05:57.279Z,96.35
2022-11-05T01:08:28.378Z,97.00
2022-11-05T01:10:59.322Z,97.40
2022-11-05T01:13:30.554Z,96.94
2022-11-05T01:16:09.881Z,96.81
2022-11-05T01:18:39.543Z,96.87
2022-11-05T01:21:13.265Z,97.46
2022-11-05T01:23:41.807Z,97.33
2022-11-05T01:26:10.345Z,97.27
2022-11-05T01:28:38.658Z,97.04
2022-11-05T01:31:08.559Z,97.09
2022-11-05T01:33:36.901Z,97.23
2022-11-05T01:36:06.918Z,97.57
2022-11-05T01:38:35.217Z,97.51
2022-11-05T01:41:03.561Z,98.04
2022-11-05T01:43:48.943Z,98.27
2022-11-05T01:46:19.517Z,97.39
2022-11-05T01:48:50.358Z,96.97
2022-11-05T01:51:23.004Z,97.19
2022-11-05T01:53:54.751Z,97.21
2022-11-05T01:56:27.949Z,96.99
2022-11-05T01:59:01.780Z,96.71
2022-11-05T02:01:31.921Z,96.46
2022-11-05T02:04:06.194Z,96.62
2022-11-05T02:06:38.081Z,96.32
2022-11-05T02:09:10.321Z,96.74
2022-11-05T02:11:38.674Z,96.41
2022-11-05T02:14:07.152Z,96.73
2022-11-05T02:16:44.162Z,96.94
2022-11-05T02:19:47.475Z,97.02
2022-11-05T02:23:13.003Z,96.50
2022-11-05T02:26:22.390Z,96.88
2022-11-05T02:29:31.191Z,97.30
2022-11-05T02:32:10.120Z,97.11
2022-11-05T02:34:51.234Z,96.75
2022-11-05T02:37:32.840Z,96.92
2022-11-05T02:40:09.864Z,96.69
2022-11-05T02:42:46.388Z,97.22
2022-11-05T02:45:30.950Z,96.56
2022-11-05T02:48:11.203Z,96.68
2022-11-05T02:50:49.773Z,95.97
2022-11-05T02:53:28.235Z,95.88
2022-11-05T02:56:02.559Z,96.03
2022-11-05T02:58:31.500Z,95.67
2022-11-05T03:01:00.364Z,95.92
2022-11-05T03:03:35.732Z,95.43
2022-11-05T03:06:32.816Z,95.77
2022-11-05T03:09:19.544Z,96.03
2022-11-05T03:11:59.446Z,96.52
2022-11-05T03:14:41.728Z,96.64
2022-11-05T03:17:19.552Z,96.71
2022-11-05T03:19:55.962Z,97.29
2022-11-05T03:22:28.597Z,97.37
2022-11-05T03:25:03.537Z,97.64
2022-11-05T03:27:33.913Z,97.73
2022-11-05T03:30:06.472Z,97.82
2022-11-05T03:32:39.821Z,97.34
2022-11-05T03:35:13.988Z,97.46
2022-11-05T03:37:46.634Z,97.40
2022-11-05T03:40:17.861Z,97.52
2022-11-05T03:42:52.920Z,97.58
2022-11-05T03:45:26.655Z,97.73
2022-11-05T03:47:59.623Z,97.84
2022-11-05T03:50:40.944Z,98.20
2022-11-05T03:53:16.133Z,97.36
2022-11-05T03:55:52.495Z,97.49
2022-11-05T03:58:23.238Z,97.45
2022-11-05T04:00:52.945Z,97.81
2022-11-05T04:03:21.247Z,97.67
2022-11-05T04:06:05.523Z,97.59
2022-11-05T04:08:51.551Z,97.15
2022-11-05T04:11:37.376Z,97.20
2022-11-05T04:14:05.668Z,97.88
2022-11-05T04:16:51.340Z,98.27
2022-11-05T04:19:40.419Z,99.11
2022-11-05T04:22:27.849Z,99.41
2022-11-05T04:24:56.119Z,99.73
2022-11-05T04:27:24.366Z,100.00
2022-11-05T04:30:10.438Z,100.00
2022-11-05T04:32:38.662Z,100.00
2022-11-05T04:35:07.423Z,100.00
2022-11-05T04:37:37.143Z,100.00
2022-11-05T04:40:06.533Z,100.00
2022-11-05T04:42:34.876Z,100.00
2022-11-05T04:45:03.083Z,100.00
2022-11-05T04:47:31.475Z,100.00
2022-11-05T04:49:59.869Z,100.00
2022-11-05T04:52:28.053Z,100.00
2022-11-05T04:54:57.713Z,100.00
2022-11-05T04:57:26.040Z,100.00
2022-11-05T04:59:55.015Z,100.00
2022-11-05T05:02:23.469Z,100.00
2022-11-05T05:04:51.815Z,100.00
2022-11-05T05:07:20.208Z,100.00
2022-11-05T05:09:48.464Z,100.00
2022-11-05T05:12:18.188Z,100.00
2022-11-05T05:14:49.151Z,100.00
2022-11-05T05:17:18.148Z,100.00
2022-11-05T05:20:04.555Z,100.00
2022-11-05T05:22:32.902Z,100.00
2022-11-05T05:25:01.236Z,100.00
2022-11-05T05:27:31.432Z,100.00
2022-11-05T05:30:00.756Z,100.00
2022-11-05T05:32:29.259Z,100.00
2022-11-05T05:34:57.665Z,100.00
2022-11-05T05:37:26.166Z,100.00
2022-11-05T05:39:54.572Z,100.00
2022-11-05T05:42:23.003Z,100.00
2022-11-05T05:44:52.659Z,100.00
2022-11-05T05:47:21.016Z,100.00
2022-11-05T05:49:49.312Z,100.00
2022-11-05T05:52:17.780Z,100.00
2022-11-05T05:54:46.074Z,100.00
2022-11-05T05:57:14.295Z,100.00
2022-11-05T05:59:42.648Z,100.00
2022-11-05T06:02:12.561Z,100.00
2022-11-05T06:04:40.912Z,100.00
2022-11-05T06:07:09.522Z,100.00
2022-11-05T06:09:37.826Z,100.00
2022-11-05T06:12:07.043Z,100.00
2022-11-05T06:14:35.493Z,100.00
2022-11-05T06:17:03.782Z,100.00
2022-11-05T06:19:33.560Z,100.00
2022-11-05T06:22:02.186Z,100.00
2022-11-05T06:24:30.741Z,100.00
2022-11-05T06:26:59.083Z,100.00
2022-11-05T06:29:27.308Z,100.00
2022-11-05T06:31:55.612Z,100.00
2022-11-05T06:34:23.857Z,100.00
2022-11-05T06:36:53.491Z,100.00
2022-11-05T06:39:21.742Z,100.00
2022-11-05T06:42:16.576Z,100.00
2022-11-05T06:44:38.397Z,100.00
2022-11-05T06:47:06.764Z,100.00
2022-11-05T06:49:35.046Z,100.00
2022-11-05T06:52:04.797Z,100.00
2022-11-05T06:54:33.015Z,100.00
2022-11-05T06:57:01.463Z,100.00
2022-11-05T06:59:29.722Z,100.00
2022-11-05T07:01:58.135Z,100.00
2022-11-05T07:04:26.479Z,100.00
2022-11-05T07:06:54.765Z,100.00
2022-11-05T07:09:25.019Z,100.00
2022-11-05T07:11:53.309Z,100.00
2022-11-05T07:14:21.774Z,100.00
2022-11-05T07:16:50.159Z,100.00
2022-11-05T07:19:18.445Z,100.00
2022-11-05T07:21:48.644Z,99.27
2022-11-05T07:24:16.896Z,99.05
2022-11-05T07:26:46.530Z,99.51
2022-11-05T07:29:14.918Z,99.68
2022-11-05T07:31:43.184Z,100.00
2022-11-05T07:34:11.921Z,100.00
2022-11-05T07:36:40.629Z,100.00
2022-11-05T07:39:09.109Z,100.00
2022-11-05T07:41:37.635Z,100.00
2022-11-05T07:44:07.711Z,99.91
2022-11-05T07:46:36.061Z,100.00
2022-11-05T07:49:04.965Z,99.14
2022-11-05T07:51:33.235Z,99.43
2022-11-05T07:54:01.642Z,99.13
2022-11-05T07:56:29.892Z,99.36
2022-11-05T07:58:58.262Z,99.15
2022-11-05T08:01:28.093Z,99.90
2022-11-05T08:03:56.618Z,99.11
2022-11-05T08:06:25.039Z,99.93
2022-11-05T08:08:53.291Z,99.24
2022-11-05T08:11:21.800Z,98.76
2022-11-05T08:13:49.994Z,98.16
2022-11-05T08:16:18.319Z,98.50
2022-11-05T08:18:48.702Z,98.42
2022-11-05T08:21:17.236Z,98.64
2022-11-05T08:23:45.607Z,98.65
2022-11-05T08:26:13.899Z,98.02
2022-11-05T08:28:42.359Z,97.23
2022-11-05T08:31:10.633Z,96.85
2022-11-05T08:33:39.181Z,97.41
2022-11-05T08:36:09.266Z,97.96
2022-11-05T08:38:37.528Z,97.51
2022-11-05T08:41:06.194Z,97.40
2022-11-05T08:43:34.525Z,96.85
2022-11-05T08:46:03.463Z,96.89
2022-11-05T08:48:31.761Z,96.67
2022-11-05T08:51:02.603Z,96.65
2022-11-05T08:53:32.260Z,96.65
2022-11-05T08:56:00.875Z,96.06
2022-11-05T08:58:29.306Z,97.05
2022-11-05T09:01:03.392Z,97.38
2022-11-05T09:03:33.135Z,96.93
2022-11-05T09:06:01.470Z,96.06
2022-11-05T09:08:31.323Z,96.71
2022-11-05T09:10:59.755Z,97.07
2022-11-05T09:13:28.197Z,96.36
2022-11-05T09:15:59.045Z,96.21
2022-11-05T09:18:27.478Z,96.24
2022-11-05T09:20:55.734Z,96.47
2022-11-05T09:23:24.061Z,96.33
2022-11-05T09:25:53.718Z,96.45
2022-11-05T09:28:24.035Z,96.56
2022-11-05T09:30:53.906Z,96.79
2022-11-05T09:33:25.646Z,97.31
2022-11-05T09:35:54.419Z,96.33
2022-11-05T09:38:22.946Z,96.74
2022-11-05T09:40:59.184Z,96.02
2022-11-05T09:43:35.406Z,96.79
2022-11-05T09:46:10.054Z,95.84
2022-11-05T09:48:40.508Z,96.30
2022-11-05T09:51:11.468Z,96.67
2022-11-05T09:53:41.952Z,96.86
2022-11-05T09:56:22.803Z,97.15
2022-11-05T09:58:57.640Z,97.25
2022-11-05T10:01:31.243Z,97.49
2022-11-05T10:04:06.533Z,96.84
2022-11-05T10:06:35.717Z,96.62
2022-11-05T10:09:12.358Z,96.25
2022-11-05T10:11:48.084Z,96.78
2022-11-05T10:14:24.042Z,96.97
2022-11-05T10:16:57.532Z,96.95
2022-11-05T10:19:31.755Z,96.97
2022-11-05T10:22:11.895Z,96.33
2022-11-05T10:24:46.310Z,96.16
2022-11-05T10:27:20.896Z,96.08
2022-11-05T10:29:50.595Z,96.58
2022-11-05T10:32:28.283Z,97.17
2022-11-05T10:35:00.302Z,96.28
2022-11-05T10:37:30.158Z,94.77
2022-11-05T10:39:59.092Z,94.18
2022-11-05T10:42:54.365Z,93.00
2022-11-05T10:45:35.543Z,93.08
2022-11-05T10:48:24.630Z,93.77
2022-11-05T10:50:53.062Z,93.02
2022-11-05T10:53:25.284Z,93.67
2022-11-05T10:55:54.647Z,93.72
2022-11-05T10:58:30.062Z,94.30
2022-11-05T11:01:06.724Z,94.37
2022-11-05T11:03:45.838Z,95.12
2022-11-05T11:06:24.185Z,94.76
2022-11-05T11:08:55.125Z,94.07
2022-11-05T11:11:30.296Z,94.57
2022-11-05T11:14:07.345Z,95.40
2022-11-05T11:16:39.219Z,95.75
2022-11-05T11:19:28.748Z,95.83
2022-11-05T11:22:23.067Z,95.24
2022-11-05T11:24:54.911Z,94.99
2022-11-05T11:27:27.672Z,95.59
2022-11-05T11:30:02.734Z,94.25
2022-11-05T11:32:37.827Z,94.45
2022-11-05T11:35:09.032Z,95.28
2022-11-05T11:37:42.076Z,93.26
2022-11-05T11:40:17.377Z,90.72
2022-11-05T11:42:48.955Z,89.94
2022-11-05T11:45:24.502Z,88.56
2022-11-05T11:47:53.144Z,88.81
2022-11-05T11:50:38.744Z,88.60
2022-11-05T11:53:37.391Z,87.70
2022-11-05T11:56:16.538Z,87.91
2022-11-05T11:58:48.935Z,86.80
2022-11-05T12:02:23.022Z,85.28
2022-11-05T12:05:16.585Z,85.86
2022-11-05T12:07:52.961Z,86.61
2022-11-05T12:10:48.949Z,83.98
2022-11-05T12:14:04.259Z,84.52
2022-11-05T12:17:15.662Z,84.05
2022-11-05T12:20:23.373Z,84.32
2022-11-05T12:23:30.308Z,84.76
2022-11-05T12:26:10.994Z,85.37
2022-11-05T12:29:19.512Z,84.17
2022-11-05T12:32:03.598Z,81.96
2022-11-05T12:34:57.898Z,82.99
2022-11-05T12:37:35.435Z,83.31
2022-11-05T12:40:34.641Z,81.93
2022-11-05T12:43:15.911Z,81.01
2022-11-05T12:45:54.895Z,80.22
2022-11-05T12:48:52.860Z,80.09
2022-11-05T12:51:37.611Z,80.01
2022-11-05T12:54:24.619Z,79.11
2022-11-05T12:56:58.615Z,80.73
2022-11-05T12:59:34.997Z,78.86
2022-11-05T13:02:12.071Z,78.51
2022-11-05T13:04:47.568Z,79.39
2022-11-05T13:07:23.722Z,78.51
2022-11-05T13:09:56.666Z,77.53
2022-11-05T13:12:28.972Z,77.34
2022-11-05T13:15:01.859Z,77.02
2022-11-05T13:17:36.379Z,77.28
2022-11-05T13:20:17.297Z,76.08
2022-11-05T13:22:53.179Z,75.33
2022-11-05T13:25:25.515Z,75.72
2022-11-05T13:28:00.814Z,76.13
2022-11-05T13:30:37.335Z,76.10
2022-11-05T13:33:12.787Z,75.84
2022-11-05T13:35:45.719Z,75.65
2022-11-05T13:38:40.720Z,73.52
2022-11-05T13:41:25.528Z,74.28
2022-11-05T13:44:11.434Z,72.98
2022-11-05T13:47:10.304Z,71.73
2022-11-05T13:50:00.248Z,72.45
2022-11-05T13:52:59.671Z,72.50
2022-11-05T13:55:56.360Z,72.55
2022-11-05T13:59:12.957Z,72.17
2022-11-05T14:01:49.576Z,72.57
2022-11-05T14:04:29.814Z,72.31
2022-11-05T14:07:09.814Z,71.94
2022-11-05T14:09:39.654Z,72.14
2022-11-05T14:12:24.188Z,73.25
2022-11-05T14:15:00.432Z,72.79
2022-11-05T14:17:34.698Z,73.62
2022-11-05T14:20:40.971Z,74.40
2022-11-05T14:23:51.881Z,73.78
2022-11-05T14:26:25.049Z,74.52
2022-11-05T14:29:40.514Z,74.08
2022-11-05T14:32:28.322Z,74.33
2022-11-05T14:35:04.874Z,74.16
2022-11-05T14:37:37.538Z,74.34
2022-11-05T14:40:34.685Z,74.51
2022-11-05T14:43:06.735Z,75.09
2022-11-05T14:45:40.034Z,75.27
2022-11-05T14:48:34.886Z,74.77
2022-11-05T14:51:04.138Z,75.20
2022-11-05T14:53:36.126Z,75.04
2022-11-05T14:56:08.454Z,76.15
2022-11-05T14:58:38.502Z,76.27
2022-11-05T15:01:10.472Z,76.67
2022-11-05T15:04:06.044Z,76.13
2022-11-05T15:06:36.696Z,76.19
2022-11-05T15:09:25.234Z,76.89
2022-11-05T15:12:12.619Z,77.06
2022-11-05T15:14:55.324Z,76.84
2022-11-05T15:17:30.122Z,77.42
2022-11-05T15:20:18.782Z,77.31
2022-11-05T15:22:51.378Z,77.35
2022-11-05T15:25:23.875Z,77.54
2022-11-05T15:28:05.260Z,77.50
2022-11-05T15:30:33.777Z,76.95
2022-11-05T15:33:20.322Z,77.43
2022-11-05T15:35:48.919Z,77.44
2022-11-05T15:38:30.213Z,77.86
2022-11-05T15:41:01.569Z,78.29
2022-11-05T15:43:30.440Z,78.38
2022-11-05T15:46:08.757Z,78.20
2022-11-05T15:48:38.767Z,77.85
2022-11-05T15:51:07.414Z,77.06
2022-11-05T15:54:23.978Z,77.12
2022-11-05T15:56:51.323Z,77.53
2022-11-05T15:59:22.389Z,77.88
2022-11-05T16:01:56.235Z,78.36
2022-11-05T16:04:30.493Z,79.44
2022-11-05T16:07:01.555Z,79.21
2022-11-05T16:09:33.192Z,78.12
2022-11-05T16:12:21.172Z,78.70
2022-11-05T16:14:59.223Z,78.23
2022-11-05T16:17:32.957Z,78.44
2022-11-05T16:20:02.792Z,78.70
2022-11-05T16:22:46.755Z,78.68
2022-11-05T16:25:47.937Z,78.50
2022-11-05T16:28:26.008Z,78.31
2022-11-05T16:30:57.085Z,78.41
2022-11-05T16:33:26.625Z,78.50
2022-11-05T16:35:56.534Z,78.77
2022-11-05T16:38:25.698Z,79.22
2022-11-05T16:40:54.170Z,79.45
2022-11-05T16:43:25.524Z,79.15
2022-11-05T16:45:56.898Z,79.47
2022-11-05T16:48:26.480Z,78.70
2022-11-05T16:50:56.224Z,79.50
2022-11-05T16:53:24.568Z,79.76
2022-11-05T16:55:52.995Z,79.57
2022-11-05T16:58:24.154Z,80.00
2022-11-05T17:00:58.548Z,80.17
2022-11-05T17:03:26.915Z,80.04
2022-11-05T17:05:56.967Z,80.39
2022-11-05T17:08:25.305Z,79.84
2022-11-05T17:10:53.664Z,79.78
2022-11-05T17:13:21.987Z,80.31
2022-11-05T17:15:51.731Z,80.12
2022-11-05T17:18:20.874Z,80.31
2022-11-05T17:20:51.376Z,80.98
2022-11-05T17:23:23.890Z,80.60
2022-11-05T17:25:54.961Z,81.09
2022-11-05T17:28:23.809Z,81.25
2022-11-05T17:30:53.361Z,81.57
2022-11-05T17:33:23.573Z,81.20
2022-11-05T17:35:52.311Z,81.04
2022-11-05T17:38:22.811Z,80.50
2022-11-05T17:40:51.858Z,79.42
2022-11-05T17:43:21.049Z,79.26
2022-11-05T17:45:52.949Z,79.11
2022-11-05T17:48:22.156Z,79.13
2022-11-05T17:50:51.816Z,78.30
2022-11-05T17:53:21.744Z,77.45
2022-11-05T17:55:50.236Z,76.49
2022-11-05T17:58:18.871Z,77.30
2022-11-05T18:00:48.636Z,77.25
2022-11-05T18:03:17.193Z,77.48
2022-11-05T18:05:45.768Z,78.23
2022-11-05T18:08:14.139Z,77.92
2022-11-05T18:10:43.971Z,77.99
2022-11-05T18:13:13.072Z,78.13
2022-11-05T18:15:41.960Z,78.22
2022-11-05T18:18:10.575Z,78.68
2022-11-05T18:20:39.598Z,78.68
2022-11-05T18:23:07.953Z,78.78
2022-11-05T18:25:36.546Z,79.12
2022-11-05T18:28:06.309Z,79.29
2022-11-05T18:30:35.068Z,79.39
2022-11-05T18:33:03.349Z,79.67
2022-11-05T18:35:31.865Z,80.01
2022-11-05T18:38:00.252Z,80.02
2022-11-05T18:40:28.852Z,80.68
2022-11-05T18:42:57.172Z,81.16
2022-11-05T18:45:29.692Z,81.69
2022-11-05T18:47:58.919Z,81.86
2022-11-05T18:50:27.411Z,82.14
2022-11-05T18:52:56.192Z,82.34
2022-11-05T18:55:25.240Z,83.14
2022-11-05T18:57:53.721Z,84.47
2022-11-05T19:00:22.651Z,85.95
2022-11-05T19:02:52.796Z,86.21
2022-11-05T19:05:28.999Z,86.26
2022-11-05T19:07:58.775Z,86.89
2022-11-05T19:10:27.900Z,86.81
2022-11-05T19:12:56.522Z,87.11
2022-11-05T19:15:25.428Z,87.21
2022-11-05T19:17:55.215Z,88.38
2022-11-05T19:20:24.180Z,88.68
2022-11-05T19:22:52.651Z,89.17
2022-11-05T19:25:21.061Z,89.21
2022-11-05T19:27:49.467Z,88.85
2022-11-05T19:30:17.960Z,88.67
2022-11-05T19:32:46.353Z,88.49
2022-11-05T19:35:16.360Z,89.07
2022-11-05T19:37:45.017Z,89.04
2022-11-05T19:40:13.836Z,88.89
2022-11-05T19:42:42.256Z,89.19
2022-11-05T19:45:38.187Z,88.96
2022-11-05T19:48:00.021Z,89.15
2022-11-05T19:50:29.752Z,88.74
2022-11-05T19:52:58.055Z,89.19
2022-11-05T19:55:26.634Z,89.34
2022-11-05T19:57:55.297Z,89.52
2022-11-05T20:00:23.705Z,89.08
2022-11-05T20:02:52.123Z,89.09
2022-11-05T20:05:20.545Z,88.78
2022-11-05T20:07:53.010Z,88.38
2022-11-05T20:10:22.118Z,88.05
2022-11-05T20:12:50.782Z,88.29
2022-11-05T20:15:19.701Z,88.42
2022-11-05T20:17:52.864Z,88.48
2022-11-05T20:20:21.621Z,88.67
2022-11-05T20:22:53.241Z,88.67
2022-11-05T20:25:21.686Z,89.13
2022-11-05T20:27:50.398Z,89.55
2022-11-05T20:30:19.863Z,90.06
2022-11-05T20:32:48.304Z,90.45
2022-11-05T20:35:16.628Z,90.62
2022-11-05T20:37:48.517Z,91.00
2022-11-05T20:40:22.745Z,91.41
2022-11-05T20:42:51.246Z,91.52
2022-11-05T20:45:19.672Z,91.69
2022-11-05T20:47:48.155Z,91.92
2022-11-05T20:50:16.712Z,91.82
2022-11-05T20:52:45.152Z,92.36
2022-11-05T20:55:13.594Z,92.62
2022-11-05T20:57:43.148Z,92.78
2022-11-05T21:00:13.646Z,92.90
2022-11-05T21:02:42.190Z,93.56
2022-11-05T21:05:10.794Z,93.80
2022-11-05T21:07:39.181Z,93.91
2022-11-05T21:10:08.142Z,93.77
2022-11-05T21:12:36.502Z,93.92
2022-11-05T21:15:07.825Z,93.84
2022-11-05T21:17:37.581Z,93.83
2022-11-05T21:20:07.055Z,93.59
2022-11-05T21:22:35.463Z,93.27
2022-11-05T21:25:04.075Z,92.94
2022-11-05T21:27:32.388Z,92.82
2022-11-05T21:30:00.608Z,92.23
2022-11-05T21:32:30.590Z,92.08
2022-11-05T21:34:59.170Z,91.92
2022-11-05T21:37:27.969Z,91.41
2022-11-05T21:39:56.589Z,90.73
2022-11-05T21:42:25.293Z,90.29
2022-11-05T21:44:59.106Z,90.66
2022-11-05T21:47:30.553Z,90.27
2022-11-05T21:49:58.843Z,90.00
2022-11-05T21:52:45.053Z,89.84
2022-11-05T21:55:31.513Z,89.70
2022-11-05T21:58:24.699Z,89.55
2022-11-05T22:00:52.920Z,90.30
2022-11-05T22:03:22.512Z,91.62
2022-11-05T22:05:51.017Z,91.75
2022-11-05T22:08:19.298Z,92.29
2022-11-05T22:10:47.658Z,92.88
2022-11-05T22:13:16.166Z,93.30
2022-11-05T22:15:44.387Z,93.40
2022-11-05T22:18:12.841Z,93.62
2022-11-05T22:20:42.637Z,93.78
2022-11-05T22:23:11.488Z,94.15
2022-11-05T22:25:40.069Z,94.40
2022-11-05T22:28:08.445Z,94.60
2022-11-05T22:30:36.969Z,94.70
2022-11-05T22:33:05.407Z,94.93
2022-11-05T22:35:33.968Z,95.10
2022-11-05T22:38:03.759Z,95.04
2022-11-05T22:40:31.996Z,94.83
2022-11-05T22:43:00.230Z,94.58
2022-11-05T22:45:28.607Z,94.66
2022-11-05T22:47:56.821Z,94.64
2022-11-05T22:50:25.102Z,94.38
2022-11-05T22:52:53.398Z,94.53
2022-11-05T22:55:23.136Z,94.50
2022-11-05T22:57:51.482Z,94.84
2022-11-05T23:00:20.380Z,94.58
2022-11-05T23:02:48.867Z,95.12
2022-11-05T23:05:17.324Z,95.04
2022-11-05T23:08:02.911Z,94.90
2022-11-05T23:10:52.575Z,94.98
2022-11-05T23:13:20.803Z,94.75
2022-11-05T23:16:07.094Z,94.86
2022-11-05T23:18:53.130Z,94.97
2022-11-05T23:21:38.911Z,95.14
2022-11-05T23:24:07.899Z,95.20
2022-11-05T23:26:52.454Z,95.57
2022-11-05T23:29:23.203Z,95.58
2022-11-05T23:32:09.539Z,95.76
2022-11-05T23:34:37.917Z,95.60
2022-11-05T23:37:24.193Z,95.74
2022-11-05T23:39:52.703Z,95.59
2022-11-05T23:42:42.362Z,95.59
2022-11-05T23:45:29.312Z,95.62
2022-11-05T23:48:15.512Z,95.70
2022-11-05T23:50:47.338Z,95.77
2022-11-05T23:53:15.869Z,95.88
2022-11-05T23:55:44.601Z,96.16
2022-11-05T23:58:15.029Z,96.22
